createdAt,value
2022-09-10T00:01:41.686Z,101807.91
2022-09-10T00:04:41.234Z,101808.81
2022-09-10T00:07:22.770Z,101815.34
2022-09-10T00:10:03.425Z,101809.00
2022-09-10T00:16:00.857Z,101812.72
2022-09-10T00:18:42.637Z,101813.91
2022-09-10T00:21:13.462Z,101818.06
2022-09-10T00:23:52.154Z,101819.09
2022-09-10T00:26:44.126Z,101818.63
2022-09-10T00:29:21.107Z,101815.78
2022-09-10T00:32:15.952Z,101813.47
2022-09-10T00:34:46.738Z,101812.22
2022-09-10T00:37:14.860Z,101806.00
2022-09-10T00:39:42.221Z,101805.16
2022-09-10T00:42:12.860Z,101799.78
2022-09-10T00:44:53.408Z,101803.34
2022-09-10T00:47:37.180Z,101802.81
2022-09-10T00:50:26.909Z,101798.63
2022-09-10T00:53:26.775Z,101793.34
2022-09-10T00:56:09.477Z,101801.38
2022-09-10T00:58:37.959Z,101802.34
2022-09-10T01:01:06.764Z,101790.88
2022-09-10T01:03:34.107Z,101789.06
2022-09-10T01:06:01.410Z,101792.53
2022-09-10T01:08:28.609Z,101794.09
2022-09-10T01:11:29.836Z,101790.41
2022-09-10T01:14:25.475Z,101786.88
2022-09-10T01:17:28.983Z,101789.69
2022-09-10T01:20:09.643Z,101781.63
2022-09-10T01:23:06.118Z,101779.09
2022-09-10T01:25:49.831Z,101783.56
2022-09-10T01:28:30.933Z,101782.69
2022-09-10T01:31:11.602Z,101779.22
2022-09-10T01:33:47.295Z,101788.03
2022-09-10T01:36:22.390Z,101775.44
2022-09-10T01:38:51.837Z,101782.44
2022-09-10T01:41:26.103Z,101780.59
2022-09-10T01:43:53.310Z,101781.50
2022-09-10T01:46:42.040Z,101782.34
2022-09-10T01:49:30.235Z,101776.28
2022-09-10T01:52:32.630Z,101787.00
2022-09-10T01:55:38.167Z,101788.75
2022-09-10T01:58:41.634Z,101791.50
2022-09-10T02:01:40.998Z,101791.34
2022-09-10T02:04:11.076Z,101791.38
2022-09-10T02:06:43.065Z,101787.06
2022-09-10T02:09:13.753Z,101787.13
2022-09-10T02:11:52.524Z,101787.13
2022-09-10T02:14:57.683Z,101788.00
2022-09-10T02:17:37.452Z,101779.16
2022-09-10T02:20:09.796Z,101781.16
2022-09-10T02:22:40.105Z,101782.00
2022-09-10T02:25:10.084Z,101776.72
2022-09-10T02:27:39.576Z,101780.31
2022-09-10T02:30:08.661Z,101780.28
2022-09-10T02:32:37.618Z,101774.88
2022-09-10T02:35:10.903Z,101779.47
2022-09-10T02:37:38.077Z,101785.56
2022-09-10T02:40:05.957Z,101769.47
2022-09-10T02:42:34.042Z,101758.84
2022-09-10T02:45:02.121Z,101763.19
2022-09-10T02:47:30.307Z,101759.69
2022-09-10T02:49:57.531Z,101763.19
2022-09-10T02:52:24.713Z,101753.50
2022-09-10T02:54:52.419Z,101758.09
2022-09-10T02:57:19.492Z,101757.09
2022-09-10T03:03:02.308Z,101751.88
2022-09-10T03:05:31.181Z,101751.81
2022-09-10T03:08:01.734Z,101756.47
2022-09-10T03:10:33.555Z,101747.75
2022-09-10T03:13:02.580Z,101754.72
2022-09-10T03:15:29.894Z,101756.56
2022-09-10T03:17:57.268Z,101752.13
2022-09-10T03:20:25.671Z,101756.78
2022-09-10T03:22:54.085Z,101753.16
2022-09-10T03:25:22.991Z,101753.97
2022-09-10T03:27:50.344Z,101754.00
2022-09-10T03:30:22.108Z,101750.50
2022-09-10T03:32:49.566Z,101755.84
2022-09-10T03:35:19.077Z,101758.53
2022-09-10T03:37:46.529Z,101758.56
2022-09-10T03:40:13.798Z,101757.63
2022-09-10T03:42:43.786Z,101760.38
2022-09-10T03:45:13.182Z,101763.88
2022-09-10T03:47:40.988Z,101763.09
2022-09-10T03:50:09.130Z,101772.81
2022-09-10T03:52:36.916Z,101766.63
2022-09-10T03:55:04.866Z,101766.66
2022-09-10T03:57:32.934Z,101768.44
2022-09-10T04:00:00.683Z,101763.13
2022-09-10T04:02:28.147Z,101765.72
2022-09-10T04:04:55.628Z,101757.75
2022-09-10T04:07:22.976Z,101756.00
2022-09-10T04:09:51.334Z,101753.34
2022-09-10T04:12:19.739Z,101756.88
2022-09-10T04:14:47.154Z,101753.38
2022-09-10T04:17:15.597Z,101758.66
2022-09-10T04:19:45.011Z,101757.81
2022-09-10T04:22:12.408Z,101760.63
2022-09-10T04:24:41.138Z,101757.09
2022-09-10T04:27:08.482Z,101758.84
2022-09-10T04:29:35.680Z,101757.84
2022-09-10T04:32:04.412Z,101754.41
2022-09-10T04:34:33.307Z,101756.06
2022-09-10T04:37:00.523Z,101753.47
2022-09-10T04:39:28.516Z,101753.47
2022-09-10T04:41:55.626Z,101771.16
2022-09-10T04:44:23.132Z,101751.75
2022-09-10T04:46:51.201Z,101749.06
2022-09-10T04:49:18.456Z,101751.78
2022-09-10T04:51:45.751Z,101748.25
2022-09-10T04:54:14.699Z,101759.78
2022-09-10T04:56:44.176Z,101750.97
2022-09-10T04:59:11.557Z,101749.25
2022-09-10T05:01:39.102Z,101753.66
2022-09-10T05:04:06.511Z,101761.63
2022-09-10T05:06:38.954Z,101765.19
2022-09-10T05:09:09.713Z,101764.34
2022-09-10T05:11:37.548Z,101760.75
2022-09-10T05:14:05.246Z,101764.28
2022-09-10T05:16:32.762Z,101769.66
2022-09-10T05:19:03.219Z,101763.47
2022-09-10T05:21:40.790Z,101775.00
2022-09-10T05:24:08.302Z,101764.41
2022-09-10T05:26:36.155Z,101767.03
2022-09-10T05:29:03.634Z,101770.63
2022-09-10T05:31:30.916Z,101779.47
2022-09-10T05:34:01.661Z,101777.78
2022-09-10T05:36:33.706Z,101779.56
2022-09-10T05:39:03.171Z,101777.75
2022-09-10T05:41:33.996Z,101779.50
2022-09-10T05:44:01.974Z,101785.75
2022-09-10T05:46:30.043Z,101792.75
2022-09-10T05:49:02.134Z,101791.94
2022-09-10T05:51:31.125Z,101797.22
2022-09-10T05:54:04.761Z,101796.31
2022-09-10T05:56:33.707Z,101799.84
2022-09-10T05:59:04.329Z,101806.94
2022-09-10T06:01:33.131Z,101807.69
2022-09-10T06:04:03.714Z,101801.59
2022-09-10T06:06:32.474Z,101798.25
2022-09-10T06:09:06.138Z,101804.25
2022-09-10T06:11:53.632Z,101806.13
2022-09-10T06:14:21.394Z,101813.03
2022-09-10T06:16:50.184Z,101807.66
2022-09-10T06:19:17.949Z,101810.50
2022-09-10T06:21:47.074Z,101808.63
2022-09-10T06:24:15.469Z,101812.06
2022-09-10T06:26:44.374Z,101812.88
2022-09-10T06:29:13.747Z,101821.81
2022-09-10T06:31:42.973Z,101818.22
2022-09-10T06:34:12.335Z,101815.53
2022-09-10T06:36:39.944Z,101816.44
2022-09-10T06:39:08.424Z,101815.44
2022-09-10T06:41:53.700Z,101824.38
2022-09-10T06:44:44.284Z,101823.44
2022-09-10T06:50:12.912Z,101830.47
2022-09-10T06:52:44.029Z,101823.41
2022-09-10T06:55:13.609Z,101830.31
2022-09-10T06:57:45.049Z,101837.38
2022-09-10T07:00:14.466Z,101836.38
2022-09-10T07:02:46.039Z,101833.69
2022-09-10T07:05:13.417Z,101845.81
2022-09-10T07:07:42.093Z,101843.09
2022-09-10T07:10:10.028Z,101834.94
2022-09-10T07:12:39.334Z,101834.94
2022-09-10T07:15:08.424Z,101832.00
2022-09-10T07:17:36.744Z,101838.06
2022-09-10T07:20:04.402Z,101839.63
2022-09-10T07:22:44.931Z,101840.81
2022-09-10T07:25:14.346Z,101836.94
2022-09-10T07:27:58.818Z,101842.31
2022-09-10T07:30:30.455Z,101834.41
2022-09-10T07:32:59.478Z,101836.00
2022-09-10T07:35:31.553Z,101844.53
2022-09-10T07:38:00.510Z,101842.56
2022-09-10T07:40:28.466Z,101843.28
2022-09-10T07:42:58.488Z,101845.75
2022-09-10T07:45:28.543Z,101853.47
2022-09-10T07:47:55.853Z,101851.63
2022-09-10T07:50:23.650Z,101849.63
2022-09-10T07:52:53.733Z,101848.78
2022-09-10T07:55:24.808Z,101845.84
2022-09-10T07:57:52.046Z,101842.00
2022-09-10T08:00:20.648Z,101846.16
2022-09-10T08:02:52.677Z,101851.44
2022-09-10T08:05:23.815Z,101852.94
2022-09-10T08:07:57.404Z,101854.66
2022-09-10T08:10:27.525Z,101853.66
2022-09-10T08:12:57.644Z,101851.44
2022-09-10T08:15:24.983Z,101855.97
2022-09-10T08:17:52.763Z,101858.53
2022-09-10T08:20:25.599Z,101859.44
2022-09-10T08:22:53.800Z,101854.63
2022-09-10T08:25:21.891Z,101855.06
2022-09-10T08:27:49.819Z,101857.03
2022-09-10T08:30:17.208Z,101861.41
2022-09-10T08:32:46.711Z,101856.53
2022-09-10T08:35:14.875Z,101856.34
2022-09-10T08:37:42.976Z,101861.81
2022-09-10T08:40:12.634Z,101856.94
2022-09-10T08:42:50.426Z,101859.19
2022-09-10T08:45:32.857Z,101856.09
2022-09-10T08:48:08.995Z,101856.81
2022-09-10T08:50:52.835Z,101849.66
2022-09-10T08:53:56.012Z,101863.44
2022-09-10T08:56:24.688Z,101862.69
2022-09-10T08:59:17.524Z,101864.78
2022-09-10T09:02:01.749Z,101865.94
2022-09-10T09:04:53.423Z,101864.75
2022-09-10T09:07:24.757Z,101872.75
2022-09-10T09:09:57.671Z,101864.13
2022-09-10T09:12:35.635Z,101867.53
2022-09-10T09:15:09.119Z,101865.31
2022-09-10T09:17:48.284Z,101863.75
2022-09-10T09:20:40.017Z,101866.22
2022-09-10T09:24:13.629Z,101870.84
2022-09-10T09:26:50.933Z,101873.94
2022-09-10T09:29:29.403Z,101869.56
2022-09-10T09:32:04.590Z,101873.78
2022-09-10T09:34:46.079Z,101871.66
2022-09-10T09:37:25.710Z,101869.22
2022-09-10T09:40:14.191Z,101865.66
2022-09-10T09:42:54.447Z,101871.88
2022-09-10T09:45:48.821Z,101864.34
2022-09-10T09:48:20.887Z,101860.72
2022-09-10T09:50:54.367Z,101866.03
2022-09-10T09:53:26.476Z,101868.28
2022-09-10T09:56:02.162Z,101858.31
2022-09-10T09:58:42.515Z,101862.63
2022-09-10T10:01:20.729Z,101863.00
2022-09-10T10:04:06.269Z,101852.50
2022-09-10T10:06:46.525Z,101863.19
2022-09-10T10:09:34.177Z,101858.72
2022-09-10T10:12:06.359Z,101855.94
2022-09-10T10:14:45.720Z,101847.56
2022-09-10T10:17:50.648Z,101858.09
2022-09-10T10:20:18.332Z,101860.03
2022-09-10T10:22:48.975Z,101848.75
2022-09-10T10:25:39.756Z,101846.91
2022-09-10T10:28:24.818Z,101847.59
2022-09-10T10:31:01.275Z,101841.88
2022-09-10T10:33:33.897Z,101840.72
2022-09-10T10:36:36.455Z,101837.06
2022-09-10T10:39:21.800Z,101834.53
2022-09-10T10:42:14.364Z,101837.06
2022-09-10T10:45:15.645Z,101821.22
2022-09-10T10:48:02.683Z,101831.78
2022-09-10T10:50:39.130Z,101837.63
2022-09-10T10:53:29.891Z,101835.53
2022-09-10T10:56:05.340Z,101825.44
2022-09-10T10:58:53.521Z,101820.44
2022-09-10T11:01:25.077Z,101820.81
2022-09-10T11:04:24.484Z,101829.75
2022-09-10T11:07:17.249Z,101819.88
2022-09-10T11:10:15.195Z,101808.94
2022-09-10T11:12:54.389Z,101801.88
2022-09-10T11:15:35.317Z,101816.75
2022-09-10T11:18:17.235Z,101803.50
2022-09-10T11:21:01.042Z,101818.66
2022-09-10T11:23:49.590Z,101814.22
2022-09-10T11:26:24.663Z,101798.13
2022-09-10T11:29:34.474Z,101803.53
2022-09-10T11:32:16.238Z,101805.31
2022-09-10T11:34:58.942Z,101785.22
2022-09-10T11:38:01.504Z,101786.63
2022-09-10T11:40:36.353Z,101780.25
2022-09-10T11:43:10.826Z,101785.31
2022-09-10T11:45:48.327Z,101777.13
2022-09-10T11:48:25.663Z,101779.44
2022-09-10T11:51:01.520Z,101773.22
2022-09-10T11:53:30.770Z,101777.28
2022-09-10T11:56:01.467Z,101772.84
2022-09-10T11:58:31.914Z,101768.69
2022-09-10T12:01:15.700Z,101766.34
2022-09-10T12:03:55.248Z,101774.44
2022-09-10T12:06:48.705Z,101755.72
2022-09-10T12:09:45.143Z,101770.66
2022-09-10T12:12:24.367Z,101748.09
2022-09-10T12:14:51.659Z,101754.38
2022-09-10T12:17:31.993Z,101749.25
2022-09-10T12:20:05.044Z,101745.53
2022-09-10T12:22:37.240Z,101740.31
2022-09-10T12:25:22.843Z,101734.53
2022-09-10T12:27:51.444Z,101737.94
2022-09-10T12:30:39.164Z,101735.78
2022-09-10T12:33:12.366Z,101738.59
2022-09-10T12:35:47.464Z,101723.38
2022-09-10T12:38:52.123Z,101719.91
2022-09-10T12:41:25.590Z,101742.44
2022-09-10T12:44:05.010Z,101723.00
2022-09-10T12:46:33.617Z,101728.88
2022-09-10T12:49:02.655Z,101705.66
2022-09-10T12:51:48.435Z,101705.84
2022-09-10T12:54:58.397Z,101708.50
2022-09-10T12:57:38.337Z,101720.47
2022-09-10T13:00:17.437Z,101713.00
2022-09-10T13:03:17.981Z,101709.47
2022-09-10T13:05:45.366Z,101701.94
2022-09-10T13:08:21.629Z,101692.25
2022-09-10T13:11:04.157Z,101684.22
2022-09-10T13:14:02.650Z,101684.56
2022-09-10T13:16:29.960Z,101674.69
2022-09-10T13:19:19.717Z,101673.81
2022-09-10T13:21:51.418Z,101672.31
2022-09-10T13:24:34.651Z,101663.16
2022-09-10T13:27:05.030Z,101659.50
2022-09-10T13:29:37.217Z,101667.69
2022-09-10T13:32:17.028Z,101654.94
2022-09-10T13:35:09.408Z,101653.78
2022-09-10T13:38:00.666Z,101660.56
2022-09-10T13:41:20.200Z,101657.25
2022-09-10T13:44:21.082Z,101658.41
2022-09-10T13:46:57.624Z,101644.00
2022-09-10T13:49:52.060Z,101649.75
2022-09-10T13:52:36.090Z,101642.81
2022-09-10T13:55:09.015Z,101636.78
2022-09-10T13:57:48.412Z,101641.72
2022-09-10T14:00:26.558Z,101640.13
2022-09-10T14:03:01.223Z,101639.53
2022-09-10T14:05:51.351Z,101638.38
2022-09-10T14:09:42.208Z,101627.94
2022-09-10T14:12:13.686Z,101630.22
2022-09-10T14:14:48.503Z,101636.50
2022-09-10T14:17:31.936Z,101629.56
2022-09-10T14:20:13.086Z,101614.13
2022-09-10T14:22:44.263Z,101621.44
2022-09-10T14:25:36.296Z,101607.47
2022-09-10T14:28:28.447Z,101609.97
2022-09-10T14:31:24.004Z,101613.03
2022-09-10T14:34:00.124Z,101610.81
2022-09-10T14:40:03.156Z,101616.31
2022-09-10T14:42:35.723Z,101608.91
2022-09-10T14:45:29.005Z,101617.50
2022-09-10T14:48:01.566Z,101608.13
2022-09-10T14:50:38.397Z,101609.19
2022-09-10T14:53:05.521Z,101607.06
2022-09-10T14:55:35.986Z,101596.75
2022-09-10T14:58:12.985Z,101611.44
2022-09-10T15:00:45.981Z,101600.91
2022-09-10T15:03:20.388Z,101599.72
2022-09-10T15:05:56.184Z,101591.88
2022-09-10T15:08:49.752Z,101590.88
2022-09-10T15:11:29.061Z,101582.25
2022-09-10T15:16:58.416Z,101586.34
2022-09-10T15:19:38.505Z,101577.03
2022-09-10T15:22:34.056Z,101567.31
2022-09-10T15:25:11.142Z,101572.66
2022-09-10T15:27:47.091Z,101570.56
2022-09-10T15:30:53.572Z,101561.13
2022-09-10T15:33:26.758Z,101567.91
2022-09-10T15:36:10.219Z,101563.13
2022-09-10T15:41:55.586Z,101555.72
2022-09-10T15:44:37.534Z,101557.13
2022-09-10T15:47:20.985Z,101550.97
2022-09-10T15:49:54.047Z,101547.53
2022-09-10T15:52:40.999Z,101553.75
2022-09-10T15:55:14.101Z,101548.03
2022-09-10T15:57:51.342Z,101549.22
2022-09-10T16:00:25.657Z,101546.66
2022-09-10T16:03:02.125Z,101539.75
2022-09-10T16:05:40.267Z,101545.16
2022-09-10T16:08:16.299Z,101553.69
2022-09-10T16:10:43.474Z,101527.91
2022-09-10T16:13:12.471Z,101547.16
2022-09-10T16:15:43.185Z,101547.91
2022-09-10T16:18:11.105Z,101535.44
2022-09-10T16:20:38.544Z,101542.47
2022-09-10T16:23:08.973Z,101536.94
2022-09-10T16:25:36.212Z,101537.31
2022-09-10T16:28:03.349Z,101538.13
2022-09-10T16:30:33.500Z,101542.97
2022-09-10T16:33:01.552Z,101541.81
2022-09-10T16:35:35.961Z,101535.00
2022-09-10T16:38:03.460Z,101533.81
2022-09-10T16:40:30.994Z,101537.59
2022-09-10T16:42:58.468Z,101538.53
2022-09-10T16:45:25.918Z,101540.81
2022-09-10T16:48:04.129Z,101544.97
2022-09-10T16:50:34.988Z,101529.34
2022-09-10T16:53:04.092Z,101538.34
2022-09-10T16:55:31.554Z,101548.56
2022-09-10T16:58:01.439Z,101539.41
2022-09-10T17:00:28.750Z,101530.66
2022-09-10T17:02:56.820Z,101536.06
2022-09-10T17:05:24.171Z,101540.72
2022-09-10T17:07:52.633Z,101536.53
2022-09-10T17:10:21.036Z,101532.75
2022-09-10T17:12:52.184Z,101538.53
2022-09-10T17:15:20.251Z,101534.22
2022-09-10T17:17:49.885Z,101526.50
2022-09-10T17:20:20.074Z,101530.38
2022-09-10T17:22:48.092Z,101532.47
2022-09-10T17:25:17.246Z,101524.03
2022-09-10T17:27:44.714Z,101531.03
2022-09-10T17:30:18.228Z,101530.19
2022-09-10T17:32:47.095Z,101545.72
2022-09-10T17:35:15.233Z,101543.44
2022-09-10T17:37:42.534Z,101541.16
2022-09-10T17:40:24.389Z,101553.47
2022-09-10T17:42:51.630Z,101546.25
2022-09-10T17:45:21.790Z,101551.75
2022-09-10T17:47:49.707Z,101555.41
2022-09-10T17:50:17.016Z,101560.97
2022-09-10T17:52:46.178Z,101550.94
2022-09-10T17:55:13.773Z,101550.94
2022-09-10T17:57:41.270Z,101550.13
2022-09-10T18:00:10.164Z,101547.25
2022-09-10T18:02:47.500Z,101542.69
2022-09-10T18:05:15.138Z,101543.13
2022-09-10T18:07:48.063Z,101546.66
2022-09-10T18:10:20.617Z,101541.72
2022-09-10T18:12:50.448Z,101550.44
2022-09-10T18:15:20.667Z,101545.72
2022-09-10T18:17:48.071Z,101544.03
2022-09-10T18:20:15.398Z,101543.31
2022-09-10T18:22:42.869Z,101542.81
2022-09-10T18:25:12.680Z,101539.03
2022-09-10T18:27:41.960Z,101546.75
2022-09-10T18:30:12.917Z,101549.38
2022-09-10T18:32:43.582Z,101545.31
2022-09-10T18:35:18.531Z,101554.66
2022-09-10T18:37:50.412Z,101547.63
2022-09-10T18:40:19.543Z,101562.69
2022-09-10T18:42:50.028Z,101564.13
2022-09-10T18:45:17.897Z,101562.81
2022-09-10T18:47:46.369Z,101558.84
2022-09-10T18:50:13.957Z,101571.31
2022-09-10T18:52:42.291Z,101573.47
2022-09-10T18:55:10.460Z,101570.22
2022-09-10T18:57:37.834Z,101570.44
2022-09-10T19:00:05.548Z,101570.38
2022-09-10T19:02:32.855Z,101566.50
2022-09-10T19:05:18.054Z,101575.66
2022-09-10T19:07:47.000Z,101571.78
2022-09-10T19:10:14.830Z,101579.84
2022-09-10T19:12:42.148Z,101579.97
2022-09-10T19:15:09.897Z,101585.72
2022-09-10T19:17:37.208Z,101587.25
2022-09-10T19:20:05.318Z,101586.53
2022-09-10T19:22:33.178Z,101591.00
2022-09-10T19:25:01.788Z,101591.66
2022-09-10T19:27:30.211Z,101595.84
2022-09-10T19:29:57.375Z,101600.63
2022-09-10T19:32:24.756Z,101596.22
2022-09-10T19:34:52.514Z,101607.75
2022-09-10T19:37:20.086Z,101612.31
2022-09-10T19:39:48.098Z,101607.59
2022-09-10T19:42:15.494Z,101600.50
2022-09-10T19:44:43.750Z,101612.03
2022-09-10T19:47:10.905Z,101609.22
2022-09-10T19:49:39.401Z,101598.25
2022-09-10T19:52:06.642Z,101603.47
2022-09-10T19:54:33.988Z,101614.88
2022-09-10T19:57:01.325Z,101616.41
2022-09-10T19:59:28.512Z,101605.81
2022-09-10T20:01:58.527Z,101610.38
2022-09-10T20:04:26.221Z,101611.44
2022-09-10T20:06:53.456Z,101608.75
2022-09-10T20:09:20.816Z,101612.66
2022-09-10T20:11:51.961Z,101611.41
2022-09-10T20:14:20.460Z,101608.41
2022-09-10T20:16:49.017Z,101601.34
2022-09-10T20:19:22.932Z,101607.66
2022-09-10T20:21:50.677Z,101601.59
2022-09-10T20:24:18.240Z,101610.50
2022-09-10T20:26:46.847Z,101607.06
2022-09-10T20:29:16.728Z,101614.56
2022-09-10T20:31:46.651Z,101615.22
2022-09-10T20:34:17.178Z,101619.53
2022-09-10T20:36:46.093Z,101612.06
2022-09-10T20:39:15.907Z,101615.63
2022-09-10T20:41:44.092Z,101618.31
2022-09-10T20:44:15.120Z,101616.91
2022-09-10T20:46:43.348Z,101613.63
2022-09-10T20:49:13.439Z,101610.53
2022-09-10T20:51:41.865Z,101609.53
2022-09-10T20:54:13.602Z,101609.81
2022-09-10T20:56:41.491Z,101601.28
2022-09-10T20:59:09.224Z,101605.97
2022-09-10T21:01:41.460Z,101607.44
2022-09-10T21:04:08.687Z,101604.44
2022-09-10T21:06:37.569Z,101609.78
2022-09-10T21:09:06.275Z,101605.66
2022-09-10T21:11:36.533Z,101610.53
2022-09-10T21:14:07.088Z,101607.13
2022-09-10T21:16:40.349Z,101606.63
2022-09-10T21:19:17.902Z,101595.53
2022-09-10T21:21:49.777Z,101609.56
2022-09-10T21:24:20.607Z,101604.88
2022-09-10T21:26:51.126Z,101604.75
2022-09-10T21:29:21.817Z,101602.84
2022-09-10T21:31:55.782Z,101604.66
2022-09-10T21:34:24.222Z,101600.91
2022-09-10T21:36:52.975Z,101615.09
2022-09-10T21:39:20.292Z,101614.72
2022-09-10T21:41:49.985Z,101615.91
2022-09-10T21:44:20.134Z,101611.34
2022-09-10T21:46:49.027Z,101612.00
2022-09-10T21:49:16.788Z,101611.03
2022-09-10T21:51:44.610Z,101615.75
2022-09-10T21:54:21.265Z,101614.59
2022-09-10T21:56:51.131Z,101610.16
2022-09-10T21:59:20.634Z,101612.03
2022-09-10T22:01:49.315Z,101609.94
2022-09-10T22:04:22.193Z,101612.59
2022-09-10T22:06:51.157Z,101610.72
2022-09-10T22:09:18.247Z,101612.41
2022-09-10T22:11:48.192Z,101608.75
2022-09-10T22:14:18.123Z,101615.06
2022-09-10T22:16:45.861Z,101613.31
2022-09-10T22:19:25.557Z,101615.47
2022-09-10T22:21:56.431Z,101617.22
2022-09-10T22:24:24.822Z,101622.50
2022-09-10T22:26:52.293Z,101618.84
2022-09-10T22:29:20.739Z,101618.75
2022-09-10T22:31:49.955Z,101614.06
2022-09-10T22:34:21.036Z,101606.09
2022-09-10T22:36:50.087Z,101613.31
2022-09-10T22:39:23.716Z,101615.19
2022-09-10T22:41:51.515Z,101611.59
2022-09-10T22:44:20.611Z,101612.75
2022-09-10T22:46:49.838Z,101616.31
2022-09-10T22:49:17.288Z,101615.59
2022-09-10T22:51:44.879Z,101618.31
2022-09-10T22:54:12.418Z,101623.53
2022-09-10T22:56:40.335Z,101615.44
2022-09-10T22:59:11.934Z,101616.31
2022-09-10T23:01:39.772Z,101611.84
2022-09-10T23:04:11.845Z,101612.81
2022-09-10T23:06:39.771Z,101611.84
2022-09-10T23:09:13.185Z,101609.16
2022-09-10T23:11:41.683Z,101614.59
2022-09-10T23:14:13.386Z,101621.03
2022-09-10T23:16:43.710Z,101618.63
2022-09-10T23:19:20.248Z,101616.78
2022-09-10T23:21:50.301Z,101621.28
2022-09-10T23:24:20.176Z,101610.47
2022-09-10T23:26:47.753Z,101609.59
2022-09-10T23:29:20.852Z,101612.38
2022-09-10T23:31:48.910Z,101604.38
2022-09-10T23:34:20.803Z,101614.19
2022-09-10T23:36:49.730Z,101609.81
2022-09-10T23:39:23.194Z,101609.81
2022-09-10T23:41:54.479Z,101602.09
2022-09-10T23:44:23.258Z,101603.69
2022-09-10T23:46:53.447Z,101602.69
2022-09-10T23:49:20.708Z,101607.16
2022-09-10T23:51:49.324Z,101598.28
2022-09-10T23:54:17.260Z,101604.44
2022-09-10T23:56:44.632Z,101603.72
2022-09-10T23:59:12.567Z,101609.94
